createdAt,value
2023-01-27T00:04:56.529Z,79.02
2023-01-27T00:09:58.642Z,78.79
2023-01-27T00:15:00.779Z,78.92
2023-01-27T00:20:04.043Z,78.76
2023-01-27T00:25:06.728Z,78.83
2023-01-27T00:30:09.623Z,78.86
2023-01-27T00:35:12.439Z,78.81
2023-01-27T00:40:17.390Z,78.88
2023-01-27T00:45:37.927Z,78.72
2023-01-27T00:50:41.151Z,78.73
2023-01-27T00:55:43.389Z,78.84
2023-01-27T01:00:45.759Z,78.62
2023-01-27T01:05:48.221Z,78.71
2023-01-27T01:10:50.362Z,78.90
2023-01-27T01:15:52.514Z,78.64
2023-01-27T01:20:54.574Z,78.85
2023-01-27T01:26:10.582Z,78.57
2023-01-27T01:31:16.120Z,79.00
2023-01-27T01:36:20.484Z,78.81
2023-01-27T01:41:23.386Z,79.07
2023-01-27T01:46:25.612Z,78.69
2023-01-27T01:52:04.294Z,78.93
2023-01-27T01:57:20.292Z,79.13
2023-01-27T02:02:26.117Z,78.89
2023-01-27T02:07:34.772Z,78.85
2023-01-27T02:12:36.959Z,78.86
2023-01-27T02:17:42.235Z,78.89
2023-01-27T02:23:12.480Z,78.90
2023-01-27T02:28:14.657Z,78.83
2023-01-27T02:33:16.755Z,78.90
2023-01-27T02:38:20.149Z,78.85
2023-01-27T02:43:22.268Z,78.83
2023-01-27T02:48:24.455Z,78.95
2023-01-27T02:53:26.697Z,78.79
2023-01-27T02:58:30.187Z,79.03
2023-01-27T03:03:47.650Z,79.04
2023-01-27T03:08:53.971Z,78.95
2023-01-27T03:13:56.725Z,79.02
2023-01-27T03:18:58.941Z,78.92
2023-01-27T03:24:01.491Z,78.95
2023-01-27T03:29:22.126Z,78.75
2023-01-27T03:34:24.671Z,79.01
2023-01-27T03:39:50.209Z,79.03
2023-01-27T03:45:11.304Z,78.90
2023-01-27T03:50:19.569Z,79.09
2023-01-27T03:55:23.379Z,78.90
2023-01-27T04:00:25.570Z,78.81
2023-01-27T04:05:46.137Z,78.87
2023-01-27T04:11:08.264Z,78.89
2023-01-27T04:16:10.674Z,78.86
2023-01-27T04:21:14.036Z,78.90
2023-01-27T04:26:19.139Z,78.96
2023-01-27T04:31:21.228Z,78.74
2023-01-27T04:36:23.362Z,78.80
2023-01-27T04:41:25.478Z,78.68
2023-01-27T04:46:27.637Z,78.69
2023-01-27T04:51:29.857Z,78.62
2023-01-27T04:56:34.334Z,78.79
2023-01-27T05:01:36.596Z,78.78
2023-01-27T05:06:38.705Z,78.83
2023-01-27T05:11:40.834Z,78.81
2023-01-27T05:16:43.003Z,79.02
2023-01-27T05:21:45.378Z,78.92
2023-01-27T05:26:47.477Z,78.63
2023-01-27T05:31:50.622Z,79.07
2023-01-27T05:36:55.696Z,78.94
2023-01-27T05:41:58.124Z,79.27
2023-01-27T05:47:00.252Z,79.17
2023-01-27T05:52:02.396Z,79.11
2023-01-27T05:57:04.974Z,79.23
2023-01-27T06:02:07.510Z,79.27
2023-01-27T06:07:09.628Z,79.20
2023-01-27T06:12:11.847Z,79.21
2023-01-27T06:17:13.958Z,79.17
2023-01-27T06:22:16.074Z,79.26
2023-01-27T06:27:18.315Z,79.54
2023-01-27T06:32:20.367Z,79.04
2023-01-27T06:37:23.029Z,79.28
2023-01-27T06:42:25.723Z,79.17
2023-01-27T06:47:27.830Z,79.14
2023-01-27T06:52:29.954Z,79.36
2023-01-27T06:57:32.139Z,79.43
2023-01-27T07:02:34.378Z,79.18
2023-01-27T07:07:36.832Z,79.23
2023-01-27T07:12:39.840Z,79.26
2023-01-27T07:17:42.170Z,79.21
2023-01-27T07:22:44.303Z,79.23
2023-01-27T07:27:46.452Z,79.14
2023-01-27T07:32:50.569Z,79.18
2023-01-27T07:37:52.846Z,79.01
2023-01-27T07:42:59.133Z,78.88
2023-01-27T07:48:08.031Z,78.93
2023-01-27T07:53:17.841Z,78.95
2023-01-27T07:58:20.286Z,78.71
2023-01-27T08:03:27.717Z,78.79
2023-01-27T08:08:29.922Z,78.86
2023-01-27T08:13:32.326Z,78.76
2023-01-27T08:18:34.971Z,78.77
2023-01-27T08:23:37.663Z,78.74
2023-01-27T08:28:40.694Z,78.62
2023-01-27T08:33:44.762Z,78.76
2023-01-27T08:38:49.446Z,78.50
2023-01-27T08:43:51.921Z,78.71
2023-01-27T08:48:54.184Z,78.49
2023-01-27T08:53:56.859Z,78.45
2023-01-27T08:58:59.178Z,78.39
2023-01-27T09:04:01.350Z,78.45
2023-01-27T09:09:11.443Z,78.47
2023-01-27T09:14:14.227Z,78.23
2023-01-27T09:19:16.689Z,78.28
2023-01-27T09:24:19.692Z,78.26
2023-01-27T09:29:22.079Z,78.21
2023-01-27T09:34:24.407Z,78.00
2023-01-27T09:39:29.580Z,78.09
2023-01-27T09:45:11.273Z,78.04
2023-01-27T09:50:38.591Z,78.11
2023-01-27T09:55:43.446Z,78.13
2023-01-27T10:00:48.430Z,77.95
2023-01-27T10:06:34.442Z,78.32
2023-01-27T10:11:52.443Z,78.30
2023-01-27T10:17:09.958Z,78.29
2023-01-27T10:22:36.708Z,78.08
2023-01-27T10:27:43.680Z,77.86
2023-01-27T10:33:07.477Z,78.13
2023-01-27T10:38:29.445Z,77.91
2023-01-27T10:43:52.156Z,78.02
2023-01-27T10:49:23.238Z,78.05
2023-01-27T10:54:36.435Z,77.95
2023-01-27T10:59:46.398Z,77.82
2023-01-27T11:05:01.058Z,77.87
2023-01-27T11:10:13.065Z,78.05
2023-01-27T11:15:27.741Z,77.84
2023-01-27T11:20:54.551Z,77.99
2023-01-27T11:26:09.943Z,77.92
2023-01-27T11:31:15.667Z,77.81
2023-01-27T11:36:18.195Z,77.49
2023-01-27T11:41:20.696Z,77.83
2023-01-27T11:46:24.209Z,77.86
2023-01-27T11:51:40.358Z,77.86
2023-01-27T11:56:46.383Z,77.75
2023-01-27T12:01:53.292Z,77.97
2023-01-27T12:06:59.872Z,77.75
2023-01-27T12:12:14.388Z,77.66
2023-01-27T12:17:30.962Z,77.80
2023-01-27T12:22:35.177Z,77.69
2023-01-27T12:27:41.580Z,77.87
2023-01-27T12:32:46.686Z,77.82
2023-01-27T12:37:49.685Z,77.55
2023-01-27T12:43:16.550Z,77.81
2023-01-27T12:48:20.376Z,77.77
2023-01-27T12:53:28.028Z,77.81
2023-01-27T12:58:36.533Z,77.62
2023-01-27T13:03:41.234Z,77.55
2023-01-27T13:08:44.047Z,77.79
2023-01-27T13:13:51.457Z,77.50
2023-01-27T13:18:58.810Z,77.41
2023-01-27T13:24:04.096Z,77.57
2023-01-27T13:29:09.457Z,77.62
2023-01-27T13:34:37.527Z,77.51
2023-01-27T13:39:54.964Z,77.70
2023-01-27T13:45:07.956Z,77.69
2023-01-27T13:50:23.133Z,77.79
2023-01-27T13:55:41.031Z,77.77
2023-01-27T14:00:53.873Z,77.92
2023-01-27T14:06:11.819Z,77.80
2023-01-27T14:11:26.323Z,78.17
2023-01-27T14:16:43.210Z,78.24
2023-01-27T14:22:25.576Z,78.28
2023-01-27T14:28:01.366Z,78.69
2023-01-27T14:33:15.260Z,78.62
2023-01-27T14:38:26.981Z,78.25
2023-01-27T14:44:00.363Z,78.55
2023-01-27T14:49:10.195Z,78.62
2023-01-27T14:54:31.606Z,78.66
2023-01-27T14:59:59.144Z,78.68
2023-01-27T15:05:29.297Z,78.86
2023-01-27T15:10:32.440Z,78.69
2023-01-27T15:15:56.046Z,78.94
2023-01-27T15:21:04.086Z,78.92
2023-01-27T15:26:08.586Z,78.93
2023-01-27T15:31:24.279Z,79.21
2023-01-27T15:36:32.430Z,78.96
2023-01-27T15:41:38.039Z,78.84
2023-01-27T15:46:45.039Z,79.12
2023-01-27T15:51:49.703Z,79.06
2023-01-27T15:56:54.116Z,79.08
2023-01-27T16:02:17.649Z,79.09
2023-01-27T16:07:32.036Z,79.10
2023-01-27T16:12:48.730Z,79.36
2023-01-27T16:18:03.416Z,79.18
2023-01-27T16:23:16.212Z,79.23
2023-01-27T16:28:21.705Z,79.23
2023-01-27T16:33:31.761Z,79.09
2023-01-27T16:38:39.574Z,79.50
2023-01-27T16:44:04.910Z,79.67
2023-01-27T16:49:32.344Z,79.64
2023-01-27T16:54:40.853Z,79.79
2023-01-27T16:59:43.008Z,79.48
2023-01-27T17:04:49.958Z,79.63
2023-01-27T17:10:01.408Z,79.89
2023-01-27T17:15:26.341Z,80.16
2023-01-27T17:20:34.138Z,79.94
2023-01-27T17:25:38.693Z,80.00
2023-01-27T17:30:42.445Z,80.06
2023-01-27T17:35:50.271Z,79.97
2023-01-27T17:40:54.681Z,79.94
2023-01-27T17:46:06.307Z,80.22
2023-01-27T17:51:13.273Z,80.00
2023-01-27T17:56:20.819Z,80.10
2023-01-27T18:01:23.498Z,80.25
2023-01-27T18:06:29.147Z,80.20
2023-01-27T18:11:34.215Z,80.58
2023-01-27T18:16:37.170Z,80.33
2023-01-27T18:21:39.610Z,80.53
2023-01-27T18:26:43.562Z,80.53
2023-01-27T18:32:03.044Z,80.68
2023-01-27T18:37:23.399Z,80.44
2023-01-27T18:42:29.368Z,80.60
2023-01-27T18:47:35.308Z,80.86
2023-01-27T18:52:41.123Z,81.05
2023-01-27T18:57:44.886Z,81.21
2023-01-27T19:03:04.925Z,81.09
2023-01-27T19:08:07.297Z,81.61
2023-01-27T19:13:10.796Z,80.80
2023-01-27T19:18:16.245Z,81.33
2023-01-27T19:23:21.438Z,81.26
2023-01-27T19:28:33.288Z,81.39
2023-01-27T19:33:37.613Z,81.49
2023-01-27T19:38:39.937Z,81.72
2023-01-27T19:43:42.364Z,81.48
2023-01-27T19:48:44.701Z,81.51
2023-01-27T19:53:47.234Z,81.62
2023-01-27T19:58:52.860Z,81.63
2023-01-27T20:03:55.282Z,81.64
2023-01-27T20:09:09.076Z,81.84
2023-01-27T20:14:16.819Z,81.80
2023-01-27T20:19:19.444Z,81.79
2023-01-27T20:24:21.854Z,81.76
2023-01-27T20:29:24.066Z,82.00
2023-01-27T20:34:26.268Z,82.01
2023-01-27T20:39:31.712Z,81.85
2023-01-27T20:44:33.996Z,82.05
2023-01-27T20:49:36.917Z,81.98
2023-01-27T20:54:39.058Z,82.12
2023-01-27T20:59:42.275Z,82.07
2023-01-27T21:04:44.864Z,82.09
2023-01-27T21:09:57.090Z,82.21
2023-01-27T21:14:59.441Z,82.05
2023-01-27T21:20:02.181Z,82.03
2023-01-27T21:25:06.285Z,82.24
2023-01-27T21:30:09.284Z,82.08
2023-01-27T21:35:11.742Z,82.29
2023-01-27T21:40:14.368Z,82.35
2023-01-27T21:45:17.451Z,82.12
2023-01-27T21:50:19.977Z,82.12
2023-01-27T21:55:26.885Z,82.29
2023-01-27T22:00:35.462Z,82.21
2023-01-27T22:05:39.401Z,82.35
2023-01-27T22:10:41.642Z,82.25
2023-01-27T22:20:57.280Z,82.51
2023-01-27T22:25:59.465Z,82.42
2023-01-27T22:31:02.861Z,82.58
2023-01-27T22:36:05.863Z,82.53
2023-01-27T22:41:08.327Z,82.52
2023-01-27T22:46:10.902Z,82.72
2023-01-27T22:51:13.115Z,82.49
2023-01-27T22:56:15.571Z,82.46
2023-01-27T23:01:17.869Z,82.61
2023-01-27T23:06:20.200Z,82.46
2023-01-27T23:11:22.375Z,82.52
2023-01-27T23:16:24.546Z,82.46
2023-01-27T23:21:26.880Z,82.58
2023-01-27T23:26:29.199Z,82.35
2023-01-27T23:31:31.493Z,82.50
2023-01-27T23:36:33.912Z,82.41
2023-01-27T23:41:36.030Z,82.26
2023-01-27T23:46:38.547Z,82.26
2023-01-27T23:51:40.825Z,82.02
2023-01-27T23:56:43.020Z,82.18
